![]() |
![]() |
Hora Fecha | Cota_Emb | Caud.G01 | Caud.G02 | Caud.G03 | Caud.G04 | Apert.Ver.1 | Apert.Ver.2 | Apert.Ver.3 | Apert.Ver.4 | Caud.Frey | Caud.Percy | Caud.Rios | |
hh:mm:ss mm/dd/aa | m.s.n.m. | m3/seg | m3/seg | m3/seg | m3/seg | mts | mts | mts | mts | m3/seg | m3/seg | m3/seg | |
00:59:00 05/05/26 | 483.52 | 0.00 | 98.59 | 0.00 | 110.01 | 0.00 | 0.00 | 0.00 | 0.00 | 132.00 | 0.00 | 343.00 | |
01:59:00 05/05/26 | 483.52 | 0.00 | 86.53 | 0.00 | 90.50 | 0.00 | 0.00 | 0.00 | 0.00 | 132.00 | 0.00 | 343.00 | |
02:59:00 05/05/26 | 483.55 | 0.00 | 77.96 | 0.00 | 80.66 | 0.00 | 0.00 | 0.00 | 0.00 | 132.00 | 0.00 | 346.00 | |
03:59:00 05/05/26 | 483.55 | 0.00 | 76.85 | 0.00 | 80.34 | 0.00 | 0.00 | 0.00 | 0.00 | 132.00 | 0.00 | 346.00 | |
04:59:00 05/05/26 | 483.52 | 0.00 | 77.16 | 0.00 | 79.86 | 0.00 | 0.00 | 0.00 | 0.00 | 132.00 | 0.00 | 291.00 | |
05:59:00 05/05/26 | 483.55 | 0.00 | 77.16 | 0.00 | 78.75 | 0.00 | 0.00 | 0.00 | 0.00 | 132.00 | 0.00 | 230.00 | |
06:59:00 05/05/26 | 483.55 | 0.00 | 77.80 | 0.00 | 80.81 | 0.00 | 0.00 | 0.00 | 0.00 | 132.00 | 0.00 | 230.00 | |
07:59:00 05/05/26 | 483.52 | 0.00 | 86.21 | 0.00 | 92.88 | 0.00 | 0.00 | 0.00 | 0.00 | 132.00 | 0.00 | 217.00 | |
08:59:00 05/05/26 | 483.55 | 0.00 | 97.64 | 0.00 | 105.73 | 0.00 | 0.00 | 0.00 | 0.00 | 132.00 | 0.00 | 217.00 | |
09:59:00 05/05/26 | 483.55 | 0.00 | 75.74 | 70.98 | 78.59 | 0.00 | 0.00 | 0.00 | 0.00 | 133.00 | 0.00 | 213.00 | |
10:59:00 05/05/26 | 483.55 | 0.00 | 82.40 | 80.66 | 87.00 | 0.00 | 0.00 | 0.00 | 0.00 | 132.00 | 0.00 | 222.00 | |
11:59:00 05/05/26 | 483.52 | 0.00 | 92.08 | 92.08 | 98.75 | 0.00 | 0.00 | 0.00 | 0.00 | 133.00 | 0.00 | 237.00 | |
12:59:00 05/05/26 | 483.52 | 0.00 | 100.97 | 99.86 | 109.06 | 0.00 | 0.00 | 0.00 | 0.00 | 133.00 | 0.00 | 237.00 | |
13:59:00 05/05/26 | 483.55 | 23.37 | 81.13 | 79.70 | 86.21 | 0.00 | 0.00 | 0.00 | 0.00 | 132.00 | 0.00 | 274.00 | |
14:59:00 05/05/26 | 483.52 | 41.14 | 87.16 | 88.27 | 93.03 | 0.00 | 0.00 | 0.00 | 0.00 | 132.00 | 0.00 | 294.00 | |
15:59:00 05/05/26 | 483.49 | 60.66 | 92.40 | 95.89 | 104.78 | 0.00 | 0.00 | 0.00 | 0.00 | 132.00 | 0.00 | 294.00 | |
16:59:00 05/05/26 | 483.49 | 60.98 | 91.92 | 97.64 | 104.94 | 0.00 | 0.00 | 0.00 | 0.00 | 132.00 | 0.00 | 338.00 | |
17:59:00 05/05/26 | 483.52 | 59.23 | 96.53 | 95.10 | 102.56 | 0.00 | 0.00 | 0.00 | 0.00 | 133.00 | 0.00 | 360.00 | |
18:59:00 05/05/26 | 483.49 | 59.07 | 95.57 | 94.46 | 101.13 | 0.00 | 0.00 | 0.00 | 0.00 | 132.00 | 0.00 | 383.00 | |
19:59:00 05/05/26 | 483.46 | 58.12 | 96.68 | 95.10 | 102.24 | 0.00 | 0.00 | 0.00 | 0.00 | 133.00 | 0.00 | 403.00 | |
20:59:00 05/05/26 | 483.46 | 59.23 | 97.48 | 95.10 | 103.19 | 0.00 | 0.00 | 0.00 | 0.00 | 133.00 | 0.00 | 403.00 | |
21:59:00 05/05/26 | 483.49 | 57.33 | 96.37 | 94.78 | 101.60 | 0.00 | 0.00 | 0.00 | 0.00 | 133.00 | 2.00 | 415.00 | |
22:59:00 05/05/26 | 483.46 | 58.28 | 95.73 | 93.67 | 100.97 | 0.00 | 0.00 | 0.00 | 0.00 | 133.00 | 2.00 | 415.00 | |
23:59:00 05/05/26 | 483.43 | 62.41 | 96.21 | 94.15 | 101.45 | 0.00 | 0.00 | 0.00 | 0.00 | 134.00 | 2.00 | 424.00 | |
Hora Fecha | Temp.Amb. | Temp.Agua | %Humedad | Cota | Ten.Bat. | Evap.Dia | Evap.Mes | Pres.Atm | Lluv.Dia | Lluv.Mes | Dato_no | Vel.Vien. | |
hh:mm:ss mm/dd/aa | grados | grados | % | m.s.n.m. | V | mm | mm | hPa | mm | mm | Valido | km/h | |
00:59:00 05/05/26 | 8.25 | 8.60 | 72.40 | 339.56 | 14.90 | 0.00 | 3.90 | 967.90 | 0.00 | 13.60 | 0.00 | 0.00 | |
01:59:00 05/05/26 | 9.65 | 8.70 | 63.40 | 339.29 | 14.90 | 0.00 | 3.90 | 967.80 | 0.00 | 13.60 | 0.00 | 3.80 | |
02:59:00 05/05/26 | 9.25 | 8.60 | 71.20 | 339.09 | 14.90 | 0.00 | 3.90 | 968.40 | 0.00 | 13.60 | 0.00 | 2.60 | |
03:59:00 05/05/26 | 9.95 | 8.70 | 66.30 | 339.08 | 14.90 | 0.00 | 3.90 | 968.50 | 0.00 | 13.60 | 0.00 | 1.50 | |
04:59:00 05/05/26 | 9.05 | 8.70 | 75.90 | 339.08 | 14.90 | 0.00 | 3.90 | 968.60 | 0.00 | 13.60 | 0.00 | 0.00 | |
05:59:00 05/05/26 | 8.05 | 8.70 | 74.50 | 339.09 | 14.90 | 0.00 | 3.90 | 969.10 | 0.00 | 13.60 | 0.00 | 1.80 | |
06:59:00 05/05/26 | 7.25 | 8.70 | 80.00 | 339.09 | 14.90 | 0.00 | 3.90 | 969.80 | 0.00 | 13.60 | 0.00 | 0.00 | |
07:59:00 05/05/26 | 6.55 | 8.70 | 86.50 | 339.28 | 14.90 | 0.00 | 3.90 | 970.20 | 0.00 | 13.60 | 0.00 | 0.00 | |
08:59:00 05/05/26 | 5.95 | 8.80 | 88.30 | 339.54 | 14.90 | 0.00 | 3.90 | 970.30 | 0.00 | 13.60 | 0.00 | 0.00 | |
09:59:00 05/05/26 | 6.35 | 8.80 | 89.10 | 339.77 | 14.90 | 0.00 | 3.90 | 970.90 | 0.00 | 13.60 | 0.00 | 0.00 | |
10:59:00 05/05/26 | 7.35 | 8.80 | 81.10 | 340.03 | 14.90 | 0.00 | 3.90 | 971.30 | 0.00 | 13.60 | 0.00 | 0.00 | |
11:59:00 05/05/26 | 8.15 | 8.90 | 77.90 | 340.33 | 14.90 | 0.00 | 3.90 | 971.00 | 0.00 | 13.60 | 0.00 | 0.00 | |
12:59:00 05/05/26 | 8.55 | 8.90 | 76.30 | 340.58 | 14.90 | 0.00 | 3.90 | 971.00 | 0.00 | 13.60 | 0.00 | 0.00 | |
13:59:00 05/05/26 | 9.25 | 8.90 | 72.90 | 340.80 | 14.90 | 0.00 | 3.90 | 970.40 | 0.00 | 13.60 | 0.00 | 0.00 | |
14:59:00 05/05/26 | 9.75 | 8.90 | 72.60 | 341.00 | 14.90 | 0.00 | 3.90 | 969.40 | 0.00 | 13.60 | 0.00 | 0.00 | |
15:59:00 05/05/26 | 9.75 | 8.90 | 76.30 | 341.38 | 14.90 | 0.00 | 3.90 | 969.00 | 0.00 | 13.60 | 0.00 | 0.00 | |
16:59:00 05/05/26 | 9.35 | 8.90 | 79.80 | 341.39 | 14.90 | 0.00 | 3.90 | 968.60 | 0.00 | 13.60 | 0.00 | 0.00 | |
17:59:00 05/05/26 | 9.05 | 8.90 | 83.00 | 341.39 | 14.90 | 0.00 | 3.90 | 968.60 | 0.00 | 13.60 | 0.00 | 0.00 | |
18:59:00 05/05/26 | 8.15 | 8.90 | 85.60 | 341.39 | 14.90 | 0.00 | 3.90 | 968.50 | 0.00 | 13.60 | 0.00 | 0.00 | |
19:59:00 05/05/26 | 7.65 | 8.90 | 87.10 | 341.39 | 14.90 | 0.00 | 3.90 | 968.70 | 0.00 | 13.60 | 0.00 | 0.00 | |
20:59:00 05/05/26 | 7.45 | 8.90 | 88.20 | 341.40 | 14.90 | 0.00 | 3.90 | 969.10 | 0.00 | 13.60 | 0.00 | 0.00 | |
21:59:00 05/05/26 | 7.45 | 8.80 | 87.90 | 341.40 | 14.90 | 0.00 | 3.90 | 969.10 | 0.00 | 13.60 | 0.00 | 0.00 | |
22:59:00 05/05/26 | 7.35 | 8.80 | 88.20 | 341.37 | 14.90 | 0.00 | 3.90 | 969.10 | 0.00 | 13.60 | 0.00 | 0.00 | |
23:59:00 05/05/26 | 7.45 | 8.80 | 88.40 | 341.37 | 14.90 | 0.00 | 3.90 | 969.00 | 0.00 | 13.60 | 0.00 | 0.00 | |
Hora Fecha | Temp.Amb. | Dato_no | %Humedad | Cota | Ten.Bat. | Dato_no | Dato_no | Dato_no | Lluv.Dia | Lluv.Mes | Dato_no | Vel.Vien. | |
hh:mm:ss mm/dd/aa | grados | Valido | % | mts | V | Valido | Valido | Valido | mm | mm | Valido | km/h | |
00:59:00 05/05/26 | 8.40 | 0.00 | 73.60 | 5.33 | 12.90 | 0.00 | 0.00 | 0.00 | 0.00 | 12.00 | 0.00 | 4.30 | |
01:59:00 05/05/26 | 8.40 | 0.00 | 73.60 | 5.33 | 12.90 | 0.00 | 0.00 | 0.00 | 0.00 | 12.00 | 0.00 | 4.30 | |
02:59:00 05/05/26 | 8.80 | 0.00 | 71.70 | 5.34 | 12.90 | 0.00 | 0.00 | 0.00 | 0.00 | 12.00 | 0.00 | 5.40 | |
03:59:00 05/05/26 | 8.80 | 0.00 | 71.70 | 5.34 | 12.90 | 0.00 | 0.00 | 0.00 | 0.00 | 12.00 | 0.00 | 5.40 | |
04:59:00 05/05/26 | 5.70 | 0.00 | 80.70 | 5.13 | 12.80 | 0.00 | 0.00 | 0.00 | 0.00 | 12.00 | 0.00 | 0.00 | |
05:59:00 05/05/26 | 6.10 | 0.00 | 82.70 | 4.87 | 12.80 | 0.00 | 0.00 | 0.00 | 0.00 | 12.00 | 0.00 | 0.00 | |
06:59:00 05/05/26 | 6.10 | 0.00 | 82.70 | 4.87 | 12.80 | 0.00 | 0.00 | 0.00 | 0.00 | 12.00 | 0.00 | 0.00 | |
07:59:00 05/05/26 | 5.30 | 0.00 | 90.90 | 4.81 | 12.70 | 0.00 | 0.00 | 0.00 | 0.00 | 12.00 | 0.00 | 0.00 | |
08:59:00 05/05/26 | 5.30 | 0.00 | 90.90 | 4.81 | 12.70 | 0.00 | 0.00 | 0.00 | 0.00 | 12.00 | 0.00 | 0.00 | |
09:59:00 05/05/26 | 5.30 | 0.00 | 91.30 | 4.79 | 12.60 | 0.00 | 0.00 | 0.00 | 0.00 | 12.00 | 0.00 | 0.00 | |
10:59:00 05/05/26 | 5.70 | 0.00 | 90.60 | 4.83 | 12.70 | 0.00 | 0.00 | 0.00 | 0.00 | 12.00 | 0.00 | 0.00 | |
11:59:00 05/05/26 | 6.10 | 0.00 | 87.80 | 4.90 | 13.30 | 0.00 | 0.00 | 0.00 | 0.00 | 12.00 | 0.00 | 0.00 | |
12:59:00 05/05/26 | 6.10 | 0.00 | 87.80 | 4.90 | 13.30 | 0.00 | 0.00 | 0.00 | 0.00 | 12.00 | 0.00 | 0.00 | |
13:59:00 05/05/26 | 8.00 | 0.00 | 81.90 | 5.06 | 13.60 | 0.00 | 0.00 | 0.00 | 0.00 | 12.00 | 0.00 | 0.00 | |
14:59:00 05/05/26 | 8.80 | 0.00 | 79.50 | 5.14 | 13.60 | 0.00 | 0.00 | 0.00 | 0.00 | 12.00 | 0.00 | 4.30 | |
15:59:00 05/05/26 | 8.80 | 0.00 | 79.50 | 5.14 | 13.60 | 0.00 | 0.00 | 0.00 | 0.00 | 12.00 | 0.00 | 0.00 | |
16:59:00 05/05/26 | 9.20 | 0.00 | 76.40 | 5.31 | 13.70 | 0.00 | 0.00 | 0.00 | 0.00 | 12.00 | 0.00 | 0.00 | |
17:59:00 05/05/26 | 9.20 | 0.00 | 76.00 | 5.39 | 13.60 | 0.00 | 0.00 | 0.00 | 0.00 | 12.00 | 0.00 | 0.00 | |
18:59:00 05/05/26 | 9.20 | 0.00 | 79.50 | 5.47 | 13.60 | 0.00 | 0.00 | 0.00 | 0.00 | 12.00 | 0.00 | 0.00 | |
19:59:00 05/05/26 | 8.40 | 0.00 | 85.80 | 5.54 | 13.10 | 0.00 | 0.00 | 0.00 | 0.00 | 12.00 | 0.00 | 0.00 | |
20:59:00 05/05/26 | 8.40 | 0.00 | 85.80 | 5.54 | 13.10 | 0.00 | 0.00 | 0.00 | 0.00 | 12.00 | 0.00 | 0.00 | |
21:59:00 05/05/26 | 7.60 | 0.00 | 89.40 | 5.58 | 13.00 | 0.00 | 0.00 | 0.00 | 0.00 | 12.00 | 0.00 | 0.00 | |
22:59:00 05/05/26 | 7.60 | 0.00 | 89.40 | 5.58 | 13.00 | 0.00 | 0.00 | 0.00 | 0.00 | 12.00 | 0.00 | 0.00 | |
23:59:00 05/05/26 | 7.20 | 0.00 | 92.50 | 5.61 | 12.90 | 0.00 | 0.00 | 0.00 | 0.00 | 12.00 | 0.00 | 0.00 | |
Hora Fecha | Temp.Amb. | Dato_no | %Humedad | Cota | Ten.Bat. | Dato_no | Dato_no | Pres.Atm | Lluv.Dia | Lluv.Mes | Di.Vien | Vel.Vien. | |
hh:mm:ss mm/dd/aa | grados | Valido | % | mts | V | Valido | Valido | hPa | mm | mm | grados | km/h | |
00:59:00 05/05/26 | 6.50 | 0.00 | 85.00 | 3.88 | 12.90 | 0.00 | 0.00 | 982.00 | 0.00 | 21.00 | 0.00 | 1.10 | |
01:59:00 05/05/26 | 6.50 | 0.00 | 85.00 | 3.88 | 12.90 | 0.00 | 0.00 | 982.00 | 0.00 | 21.00 | 0.00 | 1.10 | |
02:59:00 05/05/26 | 6.10 | 0.00 | 85.80 | 3.88 | 12.90 | 0.00 | 0.00 | 982.00 | 0.00 | 21.00 | 0.00 | 5.40 | |
03:59:00 05/05/26 | 6.10 | 0.00 | 85.80 | 3.88 | 12.90 | 0.00 | 0.00 | 982.00 | 0.00 | 21.00 | 0.00 | 5.40 | |
04:59:00 05/05/26 | 6.10 | 0.00 | 85.80 | 3.88 | 13.00 | 0.00 | 0.00 | 983.00 | 0.00 | 21.00 | 0.00 | 4.30 | |
05:59:00 05/05/26 | 6.50 | 0.00 | 79.50 | 3.88 | 12.90 | 0.00 | 0.00 | 983.00 | 0.00 | 21.00 | 0.00 | 1.10 | |
06:59:00 05/05/26 | 6.90 | 0.00 | 76.40 | 3.88 | 12.90 | 0.00 | 0.00 | 983.00 | 0.00 | 21.00 | 0.00 | 1.10 | |
07:59:00 05/05/26 | 6.50 | 0.00 | 85.40 | 3.88 | 12.90 | 0.00 | 0.00 | 984.00 | 1.00 | 22.00 | 0.00 | 0.00 | |
08:59:00 05/05/26 | 6.10 | 0.00 | 87.00 | 3.88 | 12.90 | 0.00 | 0.00 | 984.00 | 1.00 | 22.00 | 0.00 | 0.00 | |
09:59:00 05/05/26 | 5.30 | 0.00 | 87.40 | 3.89 | 12.90 | 0.00 | 0.00 | 985.00 | 1.00 | 22.00 | 0.00 | 0.00 | |
10:59:00 05/05/26 | 4.90 | 0.00 | 87.40 | 3.88 | 12.90 | 0.00 | 0.00 | 986.00 | 1.00 | 22.00 | 0.00 | 0.00 | |
11:59:00 05/05/26 | 6.90 | 0.00 | 79.10 | 3.89 | 12.90 | 0.00 | 0.00 | 984.00 | 1.00 | 22.00 | 0.00 | 0.00 | |
12:59:00 05/05/26 | 6.90 | 0.00 | 79.10 | 3.89 | 12.90 | 0.00 | 0.00 | 984.00 | 1.00 | 22.00 | 0.00 | 0.00 | |
13:59:00 05/05/26 | 7.60 | 0.00 | 76.00 | 3.88 | 13.00 | 0.00 | 0.00 | 983.00 | 1.00 | 22.00 | 0.00 | 0.00 | |
14:59:00 05/05/26 | 8.40 | 0.00 | 72.80 | 3.88 | 13.00 | 0.00 | 0.00 | 982.00 | 1.00 | 22.00 | 0.00 | 0.00 | |
15:59:00 05/05/26 | 8.40 | 0.00 | 71.30 | 3.88 | 13.00 | 0.00 | 0.00 | 981.00 | 1.00 | 22.00 | 0.00 | 0.00 | |
16:59:00 05/05/26 | 8.80 | 0.00 | 79.50 | 3.88 | 13.00 | 0.00 | 0.00 | 981.00 | 1.00 | 22.00 | 0.00 | 0.00 | |
17:59:00 05/05/26 | 8.80 | 0.00 | 78.30 | 3.89 | 13.00 | 0.00 | 0.00 | 981.00 | 1.00 | 22.00 | 0.00 | 0.00 | |
18:59:00 05/05/26 | 8.40 | 0.00 | 82.70 | 3.88 | 13.00 | 0.00 | 0.00 | 981.00 | 1.00 | 22.00 | 0.00 | 0.00 | |
19:59:00 05/05/26 | 8.40 | 0.00 | 83.10 | 3.89 | 12.90 | 0.00 | 0.00 | 981.00 | 1.00 | 22.00 | 0.00 | 0.00 | |
20:59:00 05/05/26 | 7.60 | 0.00 | 83.90 | 3.89 | 12.90 | 0.00 | 0.00 | 981.00 | 1.00 | 22.00 | 0.00 | 0.00 | |
21:59:00 05/05/26 | 7.20 | 0.00 | 84.30 | 3.90 | 12.90 | 0.00 | 0.00 | 982.00 | 1.00 | 22.00 | 0.00 | 0.00 | |
22:59:00 05/05/26 | 7.20 | 0.00 | 84.30 | 3.90 | 12.90 | 0.00 | 0.00 | 982.00 | 1.00 | 22.00 | 0.00 | 0.00 | |
23:59:00 05/05/26 | 6.90 | 0.00 | 86.20 | 3.90 | 12.90 | 0.00 | 0.00 | 983.00 | 1.00 | 22.00 | 0.00 | 0.00 | |
Hora Fecha | Temp.Amb. | Dato_no | %Humedad | Cota | Ten.Bat. | Dato_no | Dato_no | Dato_no | Lluv.Dia | Lluv.Mes | Dato_no | Vel.Vien. | |
hh:mm:ss mm/dd/aa | grados | Valido | % | m.s.n.m. | V | Valido | Valido | Valido | mm | mm | Valido | km/h | |
00:59:00 05/05/26 | 6.50 | 0.00 | 94.90 | 483.51 | 12.90 | 0.00 | 0.00 | 0.00 | 0.00 | 26.20 | 0.00 | 2.20 | |
01:59:00 05/05/26 | 6.50 | 0.00 | 94.90 | 483.51 | 12.90 | 0.00 | 0.00 | 0.00 | 0.00 | 26.20 | 0.00 | 2.20 | |
02:59:00 05/05/26 | 6.50 | 0.00 | 93.30 | 483.51 | 12.90 | 0.00 | 0.00 | 0.00 | 0.00 | 26.20 | 0.00 | 0.00 | |
03:59:00 05/05/26 | 6.50 | 0.00 | 93.30 | 483.51 | 12.90 | 0.00 | 0.00 | 0.00 | 0.00 | 26.20 | 0.00 | 0.00 | |
04:59:00 05/05/26 | 7.20 | 0.00 | 90.60 | 483.51 | 12.80 | 0.00 | 0.00 | 0.00 | 0.00 | 26.20 | 0.00 | 2.20 | |
05:59:00 05/05/26 | 6.90 | 0.00 | 91.70 | 483.52 | 12.80 | 0.00 | 0.00 | 0.00 | 0.00 | 26.20 | 0.00 | 0.00 | |
06:59:00 05/05/26 | 6.90 | 0.00 | 91.70 | 483.52 | 12.70 | 0.00 | 0.00 | 0.00 | 0.00 | 26.20 | 0.00 | 0.00 | |
07:59:00 05/05/26 | 7.20 | 0.00 | 92.10 | 483.52 | 12.70 | 0.00 | 0.00 | 0.00 | 0.00 | 26.20 | 0.00 | 0.00 | |
08:59:00 05/05/26 | 7.20 | 0.00 | 93.70 | 483.52 | 12.70 | 0.00 | 0.00 | 0.00 | 0.00 | 26.20 | 0.00 | 0.00 | |
09:59:00 05/05/26 | 6.90 | 0.00 | 94.50 | 483.52 | 12.70 | 0.00 | 0.00 | 0.00 | 0.00 | 26.20 | 0.00 | 0.00 | |
10:59:00 05/05/26 | 6.50 | 0.00 | 94.90 | 483.52 | 12.70 | 0.00 | 0.00 | 0.00 | 0.20 | 26.40 | 0.00 | 0.00 | |
11:59:00 05/05/26 | 6.50 | 0.00 | 94.90 | 483.52 | 12.70 | 0.00 | 0.00 | 0.00 | 0.20 | 26.40 | 0.00 | 0.00 | |
12:59:00 05/05/26 | 6.50 | 0.00 | 94.90 | 483.52 | 12.70 | 0.00 | 0.00 | 0.00 | 0.20 | 26.40 | 0.00 | 0.00 | |
13:59:00 05/05/26 | 6.50 | 0.00 | 94.90 | 483.52 | 12.70 | 0.00 | 0.00 | 0.00 | 0.20 | 26.40 | 0.00 | 0.00 | |
14:59:00 05/05/26 | 6.50 | 0.00 | 94.90 | 483.52 | 12.70 | 0.00 | 0.00 | 0.00 | 0.20 | 26.40 | 0.00 | 0.00 | |
15:59:00 05/05/26 | 6.50 | 0.00 | 94.90 | 483.52 | 12.70 | 0.00 | 0.00 | 0.00 | 0.20 | 26.40 | 0.00 | 0.00 | |
16:59:00 05/05/26 | 6.90 | 0.00 | 94.90 | 483.52 | 13.10 | 0.00 | 0.00 | 0.00 | 0.20 | 26.40 | 0.00 | 2.20 | |
17:59:00 05/05/26 | 6.90 | 0.00 | 94.90 | 483.52 | 13.10 | 0.00 | 0.00 | 0.00 | 0.20 | 26.40 | 0.00 | 2.20 | |
18:59:00 05/05/26 | 9.20 | 0.00 | 83.10 | 483.51 | 14.20 | 0.00 | 0.00 | 0.00 | 0.20 | 26.40 | 0.00 | 0.00 | |
19:59:00 05/05/26 | 8.80 | 0.00 | 90.20 | 483.49 | 13.00 | 0.00 | 0.00 | 0.00 | 0.20 | 26.40 | 0.00 | 0.00 | |
20:59:00 05/05/26 | 8.00 | 0.00 | 92.90 | 483.46 | 13.00 | 0.00 | 0.00 | 0.00 | 0.20 | 26.40 | 0.00 | 0.00 | |
21:59:00 05/05/26 | 8.00 | 0.00 | 92.90 | 483.46 | 12.90 | 0.00 | 0.00 | 0.00 | 0.20 | 26.40 | 0.00 | 0.00 | |
22:59:00 05/05/26 | 8.00 | 0.00 | 92.90 | 483.46 | 12.90 | 0.00 | 0.00 | 0.00 | 0.20 | 26.40 | 0.00 | 0.00 | |
23:59:00 05/05/26 | 7.60 | 0.00 | 92.50 | 483.46 | 12.90 | 0.00 | 0.00 | 0.00 | 0.20 | 26.40 | 0.00 | 0.00 | |
Hora Fecha | Temp.Amb. | Dato_no | %Humedad | Cota | Ten.Bat. | Dato_no | Dato_no | Dato_no | Lluv.Dia | Lluv.Mes | Dato_no | Vel.Vien. | |
hh:mm:ss mm/dd/aa | grados | Valido | % | mts | V | Valido | Valido | Valido | mm | mm | Valido | km/h | |
00:59:00 05/05/26 | 7.60 | 0.00 | 80.30 | 0.00 | 13.10 | 0.00 | 0.00 | 0.00 | 0.00 | 2.00 | 0.00 | 1.10 | |
01:59:00 05/05/26 | 7.60 | 0.00 | 80.30 | 0.00 | 13.10 | 0.00 | 0.00 | 0.00 | 0.00 | 2.00 | 0.00 | 1.10 | |
02:59:00 05/05/26 | 7.60 | 0.00 | 80.30 | 0.00 | 13.10 | 0.00 | 0.00 | 0.00 | 0.00 | 2.00 | 0.00 | 0.00 | |
03:59:00 05/05/26 | 7.60 | 0.00 | 80.30 | 0.00 | 13.10 | 0.00 | 0.00 | 0.00 | 0.00 | 2.00 | 0.00 | 0.00 | |
04:59:00 05/05/26 | 7.60 | 0.00 | 80.30 | 0.00 | 13.10 | 0.00 | 0.00 | 0.00 | 0.00 | 2.00 | 0.00 | 0.00 | |
05:59:00 05/05/26 | 5.30 | 0.00 | 97.60 | 0.01 | 13.10 | 0.00 | 0.00 | 0.00 | 0.00 | 2.00 | 0.00 | 0.00 | |
06:59:00 05/05/26 | 5.30 | 0.00 | 97.60 | 0.01 | 13.10 | 0.00 | 0.00 | 0.00 | 0.00 | 2.00 | 0.00 | 0.00 | |
07:59:00 05/05/26 | 4.50 | 0.00 | 99.20 | 0.01 | 13.10 | 0.00 | 0.00 | 0.00 | 0.00 | 2.00 | 0.00 | 0.00 | |
08:59:00 05/05/26 | 4.50 | 0.00 | 99.20 | 0.01 | 13.10 | 0.00 | 0.00 | 0.00 | 0.00 | 2.00 | 0.00 | 0.00 | |
09:59:00 05/05/26 | 4.10 | 0.00 | 99.20 | 0.01 | 13.10 | 0.00 | 0.00 | 0.00 | 0.00 | 2.00 | 0.00 | 1.10 | |
10:59:00 05/05/26 | 3.30 | 0.00 | 99.20 | 0.01 | 13.10 | 0.00 | 0.00 | 0.00 | 0.00 | 2.00 | 0.00 | 0.00 | |
11:59:00 05/05/26 | 3.30 | 0.00 | 99.20 | 0.01 | 13.10 | 0.00 | 0.00 | 0.00 | 0.00 | 2.00 | 0.00 | 0.00 | |
12:59:00 05/05/26 | 3.30 | 0.00 | 99.20 | 0.01 | 13.10 | 0.00 | 0.00 | 0.00 | 0.00 | 2.00 | 0.00 | 0.00 | |
13:59:00 05/05/26 | 6.50 | 0.00 | 99.20 | 0.00 | 13.10 | 0.00 | 0.00 | 0.00 | 0.00 | 2.00 | 0.00 | 0.00 | |
14:59:00 05/05/26 | 6.90 | 0.00 | 96.90 | 0.00 | 13.10 | 0.00 | 0.00 | 0.00 | 0.00 | 2.00 | 0.00 | 0.00 | |
15:59:00 05/05/26 | 6.90 | 0.00 | 96.90 | 0.00 | 13.10 | 0.00 | 0.00 | 0.00 | 0.00 | 2.00 | 0.00 | 0.00 | |
16:59:00 05/05/26 | 6.90 | 0.00 | 96.50 | 0.00 | 13.10 | 0.00 | 0.00 | 0.00 | 0.00 | 2.00 | 0.00 | 0.00 | |
17:59:00 05/05/26 | 6.90 | 0.00 | 99.20 | 0.00 | 13.10 | 0.00 | 0.00 | 0.00 | 0.00 | 2.00 | 0.00 | 0.00 | |
18:59:00 05/05/26 | 6.50 | 0.00 | 99.20 | 0.00 | 13.10 | 0.00 | 0.00 | 0.00 | 0.00 | 2.00 | 0.00 | 0.00 | |
19:59:00 05/05/26 | 6.50 | 0.00 | 99.20 | 0.00 | 13.10 | 0.00 | 0.00 | 0.00 | 0.00 | 2.00 | 0.00 | 0.00 | |
20:59:00 05/05/26 | 6.10 | 0.00 | 99.20 | 0.00 | 13.10 | 0.00 | 0.00 | 0.00 | 0.00 | 2.00 | 0.00 | 0.00 | |
21:59:00 05/05/26 | 5.70 | 0.00 | 99.20 | 0.04 | 13.10 | 0.00 | 0.00 | 0.00 | 0.00 | 2.00 | 0.00 | 0.00 | |
22:59:00 05/05/26 | 5.70 | 0.00 | 99.20 | 0.04 | 13.10 | 0.00 | 0.00 | 0.00 | 0.00 | 2.00 | 0.00 | 4.30 | |
23:59:00 05/05/26 | 5.70 | 0.00 | 99.20 | 0.04 | 13.10 | 0.00 | 0.00 | 0.00 | 0.00 | 2.00 | 0.00 | 4.30 | |